sensor_id;sensor_type;location;lat;lon;timestamp;temperature;humidity
19340;HTU21D;9804;52.350;6.684;2023-02-27T00:01:54;2.21;-6.00
19340;HTU21D;9804;52.350;6.684;2023-02-27T00:04:20;2.23;-6.00
19340;HTU21D;9804;52.350;6.684;2023-02-27T00:06:45;2.24;-6.00
19340;HTU21D;9804;52.350;6.684;2023-02-27T00:09:10;2.24;-6.00
19340;HTU21D;9804;52.350;6.684;2023-02-27T00:11:36;2.28;-6.00
19340;HTU21D;9804;52.350;6.684;2023-02-27T00:14:02;2.26;-6.00
19340;HTU21D;9804;52.350;6.684;2023-02-27T00:16:28;2.23;-6.00
19340;HTU21D;9804;52.350;6.684;2023-02-27T00:18:53;2.24;-6.00
19340;HTU21D;9804;52.350;6.684;2023-02-27T00:21:21;2.19;-6.00
19340;HTU21D;9804;52.350;6.684;2023-02-27T00:23:47;2.13;-6.00
19340;HTU21D;9804;52.350;6.684;2023-02-27T00:26:12;2.06;-6.00
19340;HTU21D;9804;52.350;6.684;2023-02-27T00:28:38;2.00;-6.00
19340;HTU21D;9804;52.350;6.684;2023-02-27T00:31:03;2.00;-6.00
19340;HTU21D;9804;52.350;6.684;2023-02-27T00:33:29;1.93;-6.00
19340;HTU21D;9804;52.350;6.684;2023-02-27T00:35:56;1.88;-6.00
19340;HTU21D;9804;52.350;6.684;2023-02-27T00:38:22;1.85;-6.00
19340;HTU21D;9804;52.350;6.684;2023-02-27T00:40:47;1.83;-6.00
19340;HTU21D;9804;52.350;6.684;2023-02-27T00:43:13;1.79;-6.00
19340;HTU21D;9804;52.350;6.684;2023-02-27T00:45:38;1.71;-6.00
19340;HTU21D;9804;52.350;6.684;2023-02-27T00:48:03;1.68;-6.00
19340;HTU21D;9804;52.350;6.684;2023-02-27T00:50:29;1.64;-6.00
19340;HTU21D;9804;52.350;6.684;2023-02-27T00:52:54;1.62;-6.00
19340;HTU21D;9804;52.350;6.684;2023-02-27T00:55:19;1.56;-6.00
19340;HTU21D;9804;52.350;6.684;2023-02-27T00:57:45;1.52;-6.00
19340;HTU21D;9804;52.350;6.684;2023-02-27T01:00:11;1.50;-6.00
19340;HTU21D;9804;52.350;6.684;2023-02-27T01:02:36;1.47;-6.00
19340;HTU21D;9804;52.350;6.684;2023-02-27T01:05:03;1.43;-6.00
19340;HTU21D;9804;52.350;6.684;2023-02-27T01:07:28;1.39;-6.00
19340;HTU21D;9804;52.350;6.684;2023-02-27T01:09:53;1.41;-6.00
19340;HTU21D;9804;52.350;6.684;2023-02-27T01:12:19;1.38;-6.00
19340;HTU21D;9804;52.350;6.684;2023-02-27T01:14:44;1.35;-6.00
19340;HTU21D;9804;52.350;6.684;2023-02-27T01:17:10;1.34;-6.00
19340;HTU21D;9804;52.350;6.684;2023-02-27T01:19:35;1.35;-6.00
19340;HTU21D;9804;52.350;6.684;2023-02-27T01:22:00;1.29;-6.00
19340;HTU21D;9804;52.350;6.684;2023-02-27T01:24:26;1.26;-6.00
19340;HTU21D;9804;52.350;6.684;2023-02-27T01:26:51;1.27;-6.00
19340;HTU21D;9804;52.350;6.684;2023-02-27T01:29:17;1.24;-6.00
19340;HTU21D;9804;52.350;6.684;2023-02-27T01:31:42;1.38;-6.00
19340;HTU21D;9804;52.350;6.684;2023-02-27T01:34:08;1.33;-6.00
19340;HTU21D;9804;52.350;6.684;2023-02-27T01:36:33;1.28;-6.00
19340;HTU21D;9804;52.350;6.684;2023-02-27T01:38:59;1.28;-6.00
19340;HTU21D;9804;52.350;6.684;2023-02-27T01:41:24;1.31;-6.00
19340;HTU21D;9804;52.350;6.684;2023-02-27T01:44:07;1.26;-6.00
19340;HTU21D;9804;52.350;6.684;2023-02-27T01:46:33;1.21;-6.00
19340;HTU21D;9804;52.350;6.684;2023-02-27T01:49:06;1.19;-6.00
19340;HTU21D;9804;52.350;6.684;2023-02-27T01:51:36;1.18;-6.00
19340;HTU21D;9804;52.350;6.684;2023-02-27T01:54:03;1.18;-6.00
19340;HTU21D;9804;52.350;6.684;2023-02-27T01:56:30;1.17;-6.00
19340;HTU21D;9804;52.350;6.684;2023-02-27T01:59:00;1.16;-6.00
19340;HTU21D;9804;52.350;6.684;2023-02-27T02:01:28;1.10;-6.00
19340;HTU21D;9804;52.350;6.684;2023-02-27T02:04:18;1.08;-6.00
19340;HTU21D;9804;52.350;6.684;2023-02-27T02:06:48;1.10;-6.00
19340;HTU21D;9804;52.350;6.684;2023-02-27T02:09:16;1.19;-6.00
19340;HTU21D;9804;52.350;6.684;2023-02-27T02:11:43;1.23;-6.00
19340;HTU21D;9804;52.350;6.684;2023-02-27T02:14:09;1.18;-6.00
19340;HTU21D;9804;52.350;6.684;2023-02-27T02:19:59;0.99;-6.00
19340;HTU21D;9804;52.350;6.684;2023-02-27T02:31:24;0.99;-6.00
19340;HTU21D;9804;52.350;6.684;2023-02-27T02:42:46;1.21;-6.00
19340;HTU21D;9804;52.350;6.684;2023-02-27T02:45:32;1.11;-6.00
19340;HTU21D;9804;52.350;6.684;2023-02-27T02:48:19;0.97;-6.00
19340;HTU21D;9804;52.350;6.684;2023-02-27T02:50:53;0.94;-6.00
19340;HTU21D;9804;52.350;6.684;2023-02-27T02:56:01;0.84;-6.00
19340;HTU21D;9804;52.350;6.684;2023-02-27T02:59:21;0.78;-6.00
19340;HTU21D;9804;52.350;6.684;2023-02-27T03:01:25;0.73;-6.00
19340;HTU21D;9804;52.350;6.684;2023-02-27T03:03:54;0.64;-6.00
19340;HTU21D;9804;52.350;6.684;2023-02-27T03:06:26;0.78;-6.00
19340;HTU21D;9804;52.350;6.684;2023-02-27T03:11:43;0.67;-6.00
19340;HTU21D;9804;52.350;6.684;2023-02-27T03:14:15;0.62;-6.00
19340;HTU21D;9804;52.350;6.684;2023-02-27T03:16:45;0.57;-6.00
19340;HTU21D;9804;52.350;6.684;2023-02-27T03:19:17;0.57;-6.00
19340;HTU21D;9804;52.350;6.684;2023-02-27T03:21:52;0.57;-6.00
19340;HTU21D;9804;52.350;6.684;2023-02-27T03:24:34;0.55;-6.00
19340;HTU21D;9804;52.350;6.684;2023-02-27T03:27:02;0.49;-6.00
19340;HTU21D;9804;52.350;6.684;2023-02-27T03:29:40;0.46;-6.00
19340;HTU21D;9804;52.350;6.684;2023-02-27T03:34:48;0.44;-6.00
19340;HTU21D;9804;52.350;6.684;2023-02-27T03:37:18;0.42;-6.00
19340;HTU21D;9804;52.350;6.684;2023-02-27T03:39:50;0.37;-6.00
19340;HTU21D;9804;52.350;6.684;2023-02-27T03:42:39;0.31;-6.00
19340;HTU21D;9804;52.350;6.684;2023-02-27T03:48:00;0.22;-6.00
19340;HTU21D;9804;52.350;6.684;2023-02-27T03:50:26;0.20;-6.00
19340;HTU21D;9804;52.350;6.684;2023-02-27T03:52:51;0.21;-6.00
19340;HTU21D;9804;52.350;6.684;2023-02-27T03:55:24;0.17;-6.00
19340;HTU21D;9804;52.350;6.684;2023-02-27T03:57:51;0.12;-6.00
19340;HTU21D;9804;52.350;6.684;2023-02-27T04:00:20;0.12;-6.00
19340;HTU21D;9804;52.350;6.684;2023-02-27T04:02:47;0.08;-6.00
19340;HTU21D;9804;52.350;6.684;2023-02-27T04:05:15;0.09;-6.00
19340;HTU21D;9804;52.350;6.684;2023-02-27T04:10:16;0.02;-6.00
19340;HTU21D;9804;52.350;6.684;2023-02-27T04:27:12;0.05;-6.00
19340;HTU21D;9804;52.350;6.684;2023-02-27T04:29:58;0.02;-6.00
19340;HTU21D;9804;52.350;6.684;2023-02-27T04:32:39;0.04;-6.00
19340;HTU21D;9804;52.350;6.684;2023-02-27T04:35:10;0.06;-6.00
19340;HTU21D;9804;52.350;6.684;2023-02-27T04:38:17;0.03;-6.00
19340;HTU21D;9804;52.350;6.684;2023-02-27T04:40:50;-0.01;-6.00
19340;HTU21D;9804;52.350;6.684;2023-02-27T04:43:19;-0.05;-6.00
19340;HTU21D;9804;52.350;6.684;2023-02-27T04:45:45;-0.00;-6.00
19340;HTU21D;9804;52.350;6.684;2023-02-27T04:48:33;-0.02;-6.00
19340;HTU21D;9804;52.350;6.684;2023-02-27T04:51:14;-0.02;-6.00
19340;HTU21D;9804;52.350;6.684;2023-02-27T04:53:55;-0.11;-6.00
19340;HTU21D;9804;52.350;6.684;2023-02-27T04:56:28;-0.15;-6.00
19340;HTU21D;9804;52.350;6.684;2023-02-27T04:59:08;-0.16;-6.00
19340;HTU21D;9804;52.350;6.684;2023-02-27T05:01:38;-0.15;-6.00
19340;HTU21D;9804;52.350;6.684;2023-02-27T05:04:07;-0.16;-6.00
19340;HTU21D;9804;52.350;6.684;2023-02-27T05:06:37;-0.23;-6.00
19340;HTU21D;9804;52.350;6.684;2023-02-27T05:12:01;-0.20;-6.00
19340;HTU21D;9804;52.350;6.684;2023-02-27T05:14:30;-0.19;-6.00
19340;HTU21D;9804;52.350;6.684;2023-02-27T05:17:14;-0.20;-6.00
19340;HTU21D;9804;52.350;6.684;2023-02-27T05:19:41;-0.24;-6.00
19340;HTU21D;9804;52.350;6.684;2023-02-27T05:22:10;-0.24;-6.00
19340;HTU21D;9804;52.350;6.684;2023-02-27T05:27:48;-0.17;-6.00
19340;HTU21D;9804;52.350;6.684;2023-02-27T05:32:51;-0.25;-6.00
19340;HTU21D;9804;52.350;6.684;2023-02-27T05:38:05;-0.23;-6.00
19340;HTU21D;9804;52.350;6.684;2023-02-27T05:40:36;-0.27;-6.00
19340;HTU21D;9804;52.350;6.684;2023-02-27T05:43:08;-0.35;-6.00
19340;HTU21D;9804;52.350;6.684;2023-02-27T05:45:36;-0.38;-6.00
19340;HTU21D;9804;52.350;6.684;2023-02-27T05:48:09;-0.39;-6.00
19340;HTU21D;9804;52.350;6.684;2023-02-27T05:50:37;-0.41;-6.00
19340;HTU21D;9804;52.350;6.684;2023-02-27T05:53:07;-0.43;-6.00
19340;HTU21D;9804;52.350;6.684;2023-02-27T05:55:52;-0.41;-6.00
19340;HTU21D;9804;52.350;6.684;2023-02-27T05:58:22;-0.42;-6.00
19340;HTU21D;9804;52.350;6.684;2023-02-27T06:00:59;-0.43;-6.00
19340;HTU21D;9804;52.350;6.684;2023-02-27T06:03:26;-0.44;-6.00
19340;HTU21D;9804;52.350;6.684;2023-02-27T06:05:53;-0.45;-6.00
19340;HTU21D;9804;52.350;6.684;2023-02-27T06:08:20;-0.47;-6.00
19340;HTU21D;9804;52.350;6.684;2023-02-27T06:10:46;-0.52;-6.00
19340;HTU21D;9804;52.350;6.684;2023-02-27T06:13:12;-0.53;-6.00
19340;HTU21D;9804;52.350;6.684;2023-02-27T06:15:38;-0.54;-6.00
19340;HTU21D;9804;52.350;6.684;2023-02-27T06:18:04;-0.56;-6.00
19340;HTU21D;9804;52.350;6.684;2023-02-27T06:20:29;-0.58;-6.00
19340;HTU21D;9804;52.350;6.684;2023-02-27T06:22:54;-0.60;-6.00
19340;HTU21D;9804;52.350;6.684;2023-02-27T06:25:20;-0.62;-6.00
19340;HTU21D;9804;52.350;6.684;2023-02-27T06:27:46;-0.59;-6.00
19340;HTU21D;9804;52.350;6.684;2023-02-27T06:30:12;-0.60;-6.00
19340;HTU21D;9804;52.350;6.684;2023-02-27T06:32:37;-0.61;-6.00
19340;HTU21D;9804;52.350;6.684;2023-02-27T06:35:03;-0.62;-6.00
19340;HTU21D;9804;52.350;6.684;2023-02-27T06:37:30;-0.59;-6.00
19340;HTU21D;9804;52.350;6.684;2023-02-27T06:39:55;-0.59;-6.00
19340;HTU21D;9804;52.350;6.684;2023-02-27T06:42:21;-0.56;-6.00
19340;HTU21D;9804;52.350;6.684;2023-02-27T06:44:47;-0.54;-6.00
19340;HTU21D;9804;52.350;6.684;2023-02-27T06:47:12;-0.51;-6.00
19340;HTU21D;9804;52.350;6.684;2023-02-27T06:49:38;-0.45;-6.00
19340;HTU21D;9804;52.350;6.684;2023-02-27T06:52:03;-0.39;-6.00
19340;HTU21D;9804;52.350;6.684;2023-02-27T06:54:28;-0.39;-6.00
19340;HTU21D;9804;52.350;6.684;2023-02-27T06:56:54;-0.39;-6.00
19340;HTU21D;9804;52.350;6.684;2023-02-27T06:59:19;-0.36;-6.00
19340;HTU21D;9804;52.350;6.684;2023-02-27T07:01:45;-0.32;-6.00
19340;HTU21D;9804;52.350;6.684;2023-02-27T07:04:14;-0.28;-6.00
19340;HTU21D;9804;52.350;6.684;2023-02-27T07:06:39;-0.22;-6.00
19340;HTU21D;9804;52.350;6.684;2023-02-27T07:09:05;-0.12;-6.00
19340;HTU21D;9804;52.350;6.684;2023-02-27T07:11:30;-0.08;-6.00
19340;HTU21D;9804;52.350;6.684;2023-02-27T07:13:55;-0.07;-6.00
19340;HTU21D;9804;52.350;6.684;2023-02-27T07:16:21;0.01;-6.00
19340;HTU21D;9804;52.350;6.684;2023-02-27T07:18:46;0.05;-6.00
19340;HTU21D;9804;52.350;6.684;2023-02-27T07:21:12;0.12;-6.00
19340;HTU21D;9804;52.350;6.684;2023-02-27T07:23:39;0.15;-6.00
19340;HTU21D;9804;52.350;6.684;2023-02-27T07:26:05;0.16;-6.00
19340;HTU21D;9804;52.350;6.684;2023-02-27T07:28:30;0.24;-6.00
19340;HTU21D;9804;52.350;6.684;2023-02-27T07:30:55;0.30;-6.00
19340;HTU21D;9804;52.350;6.684;2023-02-27T07:33:21;0.36;-6.00
19340;HTU21D;9804;52.350;6.684;2023-02-27T07:35:46;0.35;-6.00
19340;HTU21D;9804;52.350;6.684;2023-02-27T07:38:12;0.50;-6.00
19340;HTU21D;9804;52.350;6.684;2023-02-27T07:40:37;0.55;-6.00
19340;HTU21D;9804;52.350;6.684;2023-02-27T07:43:03;0.66;-6.00
19340;HTU21D;9804;52.350;6.684;2023-02-27T07:45:28;0.88;-6.00
19340;HTU21D;9804;52.350;6.684;2023-02-27T07:47:53;0.95;-6.00
19340;HTU21D;9804;52.350;6.684;2023-02-27T07:50:19;1.06;-6.00
19340;HTU21D;9804;52.350;6.684;2023-02-27T07:52:44;1.22;-6.00
19340;HTU21D;9804;52.350;6.684;2023-02-27T07:55:11;1.36;-6.00
19340;HTU21D;9804;52.350;6.684;2023-02-27T07:57:37;1.47;-6.00
19340;HTU21D;9804;52.350;6.684;2023-02-27T08:00:07;1.62;-6.00
19340;HTU21D;9804;52.350;6.684;2023-02-27T08:02:33;1.80;-6.00
19340;HTU21D;9804;52.350;6.684;2023-02-27T08:04:58;1.95;-6.00
19340;HTU21D;9804;52.350;6.684;2023-02-27T08:07:24;2.11;-6.00
19340;HTU21D;9804;52.350;6.684;2023-02-27T08:09:49;2.30;-6.00
19340;HTU21D;9804;52.350;6.684;2023-02-27T08:12:15;2.49;-6.00
19340;HTU21D;9804;52.350;6.684;2023-02-27T08:14:40;2.58;-6.00
19340;HTU21D;9804;52.350;6.684;2023-02-27T08:17:06;2.75;-6.00
19340;HTU21D;9804;52.350;6.684;2023-02-27T08:19:32;2.80;-6.00
19340;HTU21D;9804;52.350;6.684;2023-02-27T08:21:57;2.88;-6.00
19340;HTU21D;9804;52.350;6.684;2023-02-27T08:24:23;3.03;-6.00
19340;HTU21D;9804;52.350;6.684;2023-02-27T08:26:48;3.14;-6.00
19340;HTU21D;9804;52.350;6.684;2023-02-27T08:29:13;3.31;-6.00
19340;HTU21D;9804;52.350;6.684;2023-02-27T08:31:39;3.43;-6.00
19340;HTU21D;9804;52.350;6.684;2023-02-27T08:34:04;3.99;-6.00
19340;HTU21D;9804;52.350;6.684;2023-02-27T08:36:30;4.14;-6.00
19340;HTU21D;9804;52.350;6.684;2023-02-27T08:38:56;4.35;-6.00
19340;HTU21D;9804;52.350;6.684;2023-02-27T08:41:21;4.47;-6.00
19340;HTU21D;9804;52.350;6.684;2023-02-27T08:43:47;4.77;-6.00
19340;HTU21D;9804;52.350;6.684;2023-02-27T08:46:12;4.63;-6.00
19340;HTU21D;9804;52.350;6.684;2023-02-27T08:48:37;4.89;-6.00
19340;HTU21D;9804;52.350;6.684;2023-02-27T08:51:03;5.06;-6.00
19340;HTU21D;9804;52.350;6.684;2023-02-27T08:53:29;5.26;-6.00
19340;HTU21D;9804;52.350;6.684;2023-02-27T08:55:54;5.11;-6.00
19340;HTU21D;9804;52.350;6.684;2023-02-27T08:58:20;5.25;-6.00
19340;HTU21D;9804;52.350;6.684;2023-02-27T09:00:46;5.15;-6.00
19340;HTU21D;9804;52.350;6.684;2023-02-27T09:03:11;5.33;-6.00
19340;HTU21D;9804;52.350;6.684;2023-02-27T09:05:37;5.38;-6.00
19340;HTU21D;9804;52.350;6.684;2023-02-27T09:08:04;5.34;-6.00
19340;HTU21D;9804;52.350;6.684;2023-02-27T09:10:30;5.51;-6.00
19340;HTU21D;9804;52.350;6.684;2023-02-27T09:12:57;5.45;-6.00
19340;HTU21D;9804;52.350;6.684;2023-02-27T09:15:23;5.46;-6.00
19340;HTU21D;9804;52.350;6.684;2023-02-27T09:17:48;5.62;-6.00
19340;HTU21D;9804;52.350;6.684;2023-02-27T09:20:14;5.62;-6.00
19340;HTU21D;9804;52.350;6.684;2023-02-27T09:22:40;5.51;-6.00
19340;HTU21D;9804;52.350;6.684;2023-02-27T09:25:06;6.05;-6.00
19340;HTU21D;9804;52.350;6.684;2023-02-27T09:27:31;6.21;-6.00
19340;HTU21D;9804;52.350;6.684;2023-02-27T09:29:57;5.71;-6.00
19340;HTU21D;9804;52.350;6.684;2023-02-27T09:32:24;6.09;-6.00
19340;HTU21D;9804;52.350;6.684;2023-02-27T09:34:50;6.20;-6.00
19340;HTU21D;9804;52.350;6.684;2023-02-27T09:37:16;6.27;-6.00
19340;HTU21D;9804;52.350;6.684;2023-02-27T09:39:43;6.37;-6.00
19340;HTU21D;9804;52.350;6.684;2023-02-27T09:42:25;6.63;-6.00
19340;HTU21D;9804;52.350;6.684;2023-02-27T09:44:55;6.49;-6.00
19340;HTU21D;9804;52.350;6.684;2023-02-27T09:52:23;6.94;-6.00
19340;HTU21D;9804;52.350;6.684;2023-02-27T09:54:49;7.01;-6.00
19340;HTU21D;9804;52.350;6.684;2023-02-27T09:57:22;7.39;-6.00
19340;HTU21D;9804;52.350;6.684;2023-02-27T09:59:54;7.02;-6.00
19340;HTU21D;9804;52.350;6.684;2023-02-27T10:02:37;7.28;-6.00
19340;HTU21D;9804;52.350;6.684;2023-02-27T10:05:10;7.44;-6.00
19340;HTU21D;9804;52.350;6.684;2023-02-27T10:07:57;7.13;-6.00
19340;HTU21D;9804;52.350;6.684;2023-02-27T10:13:27;7.02;-6.00
19340;HTU21D;9804;52.350;6.684;2023-02-27T10:15:54;7.09;-6.00
19340;HTU21D;9804;52.350;6.684;2023-02-27T10:18:27;6.79;-6.00
19340;HTU21D;9804;52.350;6.684;2023-02-27T10:20:56;7.07;-6.00
19340;HTU21D;9804;52.350;6.684;2023-02-27T10:26:23;7.12;-6.00
19340;HTU21D;9804;52.350;6.684;2023-02-27T10:28:50;6.79;-6.00
19340;HTU21D;9804;52.350;6.684;2023-02-27T10:31:21;7.20;-6.00
19340;HTU21D;9804;52.350;6.684;2023-02-27T10:33:48;7.31;-6.00
19340;HTU21D;9804;52.350;6.684;2023-02-27T10:36:16;7.44;-6.00
19340;HTU21D;9804;52.350;6.684;2023-02-27T10:38:45;7.52;-6.00
19340;HTU21D;9804;52.350;6.684;2023-02-27T10:41:14;7.68;-6.00
19340;HTU21D;9804;52.350;6.684;2023-02-27T10:43:40;7.82;-6.00
19340;HTU21D;9804;52.350;6.684;2023-02-27T10:46:13;7.93;-6.00
19340;HTU21D;9804;52.350;6.684;2023-02-27T10:48:39;7.97;-6.00
19340;HTU21D;9804;52.350;6.684;2023-02-27T10:51:20;8.03;-6.00
19340;HTU21D;9804;52.350;6.684;2023-02-27T10:53:46;8.23;-6.00
19340;HTU21D;9804;52.350;6.684;2023-02-27T10:56:15;8.08;-6.00
19340;HTU21D;9804;52.350;6.684;2023-02-27T10:58:42;8.32;-6.00
19340;HTU21D;9804;52.350;6.684;2023-02-27T11:01:10;8.08;-6.00
19340;HTU21D;9804;52.350;6.684;2023-02-27T11:03:41;8.50;-6.00
19340;HTU21D;9804;52.350;6.684;2023-02-27T11:06:12;8.53;-6.00
19340;HTU21D;9804;52.350;6.684;2023-02-27T11:08:38;8.61;-6.00
19340;HTU21D;9804;52.350;6.684;2023-02-27T11:13:32;8.52;-6.00
19340;HTU21D;9804;52.350;6.684;2023-02-27T11:16:16;8.49;-6.00
19340;HTU21D;9804;52.350;6.684;2023-02-27T11:18:47;8.34;-6.00
19340;HTU21D;9804;52.350;6.684;2023-02-27T11:21:23;8.53;-6.00
19340;HTU21D;9804;52.350;6.684;2023-02-27T11:24:02;8.36;-6.00
19340;HTU21D;9804;52.350;6.684;2023-02-27T11:26:39;8.52;-6.00
19340;HTU21D;9804;52.350;6.684;2023-02-27T11:29:16;8.71;-6.00
19340;HTU21D;9804;52.350;6.684;2023-02-27T11:31:54;8.73;-6.00
19340;HTU21D;9804;52.350;6.684;2023-02-27T11:36:50;8.57;-6.00
19340;HTU21D;9804;52.350;6.684;2023-02-27T11:39:23;8.85;-6.00
19340;HTU21D;9804;52.350;6.684;2023-02-27T11:41:49;8.46;-6.00
19340;HTU21D;9804;52.350;6.684;2023-02-27T11:44:17;8.62;-6.00
19340;HTU21D;9804;52.350;6.684;2023-02-27T11:46:44;8.33;-6.00
19340;HTU21D;9804;52.350;6.684;2023-02-27T11:52:01;8.21;-6.00
19340;HTU21D;9804;52.350;6.684;2023-02-27T11:54:36;8.43;-6.00
19340;HTU21D;9804;52.350;6.684;2023-02-27T11:57:20;8.51;-6.00
19340;HTU21D;9804;52.350;6.684;2023-02-27T12:00:28;8.43;-6.00
19340;HTU21D;9804;52.350;6.684;2023-02-27T12:02:59;8.43;-6.00
19340;HTU21D;9804;52.350;6.684;2023-02-27T12:05:36;8.46;-6.00
19340;HTU21D;9804;52.350;6.684;2023-02-27T12:08:10;8.75;-6.00
19340;HTU21D;9804;52.350;6.684;2023-02-27T12:10:49;8.77;-6.00
19340;HTU21D;9804;52.350;6.684;2023-02-27T12:13:21;9.25;-6.00
19340;HTU21D;9804;52.350;6.684;2023-02-27T12:16:07;9.63;-6.00
19340;HTU21D;9804;52.350;6.684;2023-02-27T12:18:37;9.27;-6.00
19340;HTU21D;9804;52.350;6.684;2023-02-27T12:21:23;9.65;-6.00
19340;HTU21D;9804;52.350;6.684;2023-02-27T12:23:56;9.15;-6.00
19340;HTU21D;9804;52.350;6.684;2023-02-27T12:26:30;8.97;-6.00
19340;HTU21D;9804;52.350;6.684;2023-02-27T12:29:02;9.02;-6.00
19340;HTU21D;9804;52.350;6.684;2023-02-27T12:36:38;8.76;-6.00
19340;HTU21D;9804;52.350;6.684;2023-02-27T12:39:04;8.89;-6.00
19340;HTU21D;9804;52.350;6.684;2023-02-27T12:41:40;8.77;-6.00
19340;HTU21D;9804;52.350;6.684;2023-02-27T12:47:06;8.50;-6.00
19340;HTU21D;9804;52.350;6.684;2023-02-27T12:49:58;9.09;-6.00
19340;HTU21D;9804;52.350;6.684;2023-02-27T12:53:22;8.97;-6.00
19340;HTU21D;9804;52.350;6.684;2023-02-27T12:56:14;8.98;-6.00
19340;HTU21D;9804;52.350;6.684;2023-02-27T12:58:56;8.70;-6.00
19340;HTU21D;9804;52.350;6.684;2023-02-27T13:01:56;9.06;-6.00
19340;HTU21D;9804;52.350;6.684;2023-02-27T13:04:36;9.61;-6.00
19340;HTU21D;9804;52.350;6.684;2023-02-27T13:07:12;9.92;-6.00
19340;HTU21D;9804;52.350;6.684;2023-02-27T13:09:57;9.24;-6.00
19340;HTU21D;9804;52.350;6.684;2023-02-27T13:12:39;9.38;-6.00
19340;HTU21D;9804;52.350;6.684;2023-02-27T13:15:17;9.19;-6.00
19340;HTU21D;9804;52.350;6.684;2023-02-27T13:17:54;8.94;-6.00
19340;HTU21D;9804;52.350;6.684;2023-02-27T13:26:36;8.92;-6.00
19340;HTU21D;9804;52.350;6.684;2023-02-27T13:29:03;8.79;-6.00
19340;HTU21D;9804;52.350;6.684;2023-02-27T13:36:52;8.46;-6.00
19340;HTU21D;9804;52.350;6.684;2023-02-27T13:49:57;9.12;-6.00
19340;HTU21D;9804;52.350;6.684;2023-02-27T13:52:29;8.92;-6.00
19340;HTU21D;9804;52.350;6.684;2023-02-27T13:54:55;9.23;-6.00
19340;HTU21D;9804;52.350;6.684;2023-02-27T13:57:31;9.22;-6.00
19340;HTU21D;9804;52.350;6.684;2023-02-27T14:02:59;9.41;-6.00
19340;HTU21D;9804;52.350;6.684;2023-02-27T14:05:40;9.31;-6.00
19340;HTU21D;9804;52.350;6.684;2023-02-27T14:08:07;9.14;-6.00
19340;HTU21D;9804;52.350;6.684;2023-02-27T14:10:34;8.98;-6.00
19340;HTU21D;9804;52.350;6.684;2023-02-27T14:13:01;9.40;-6.00
19340;HTU21D;9804;52.350;6.684;2023-02-27T14:18:01;9.39;-6.00
19340;HTU21D;9804;52.350;6.684;2023-02-27T14:28:50;9.24;-6.00
19340;HTU21D;9804;52.350;6.684;2023-02-27T14:31:24;9.02;-6.00
19340;HTU21D;9804;52.350;6.684;2023-02-27T14:33:53;9.07;-6.00
19340;HTU21D;9804;52.350;6.684;2023-02-27T14:36:24;9.33;-6.00
19340;HTU21D;9804;52.350;6.684;2023-02-27T14:38:53;9.22;-6.00
19340;HTU21D;9804;52.350;6.684;2023-02-27T14:44:22;9.46;-6.00
19340;HTU21D;9804;52.350;6.684;2023-02-27T14:46:48;9.68;-6.00
19340;HTU21D;9804;52.350;6.684;2023-02-27T14:49:28;9.17;-6.00
19340;HTU21D;9804;52.350;6.684;2023-02-27T14:51:55;9.52;-6.00
19340;HTU21D;9804;52.350;6.684;2023-02-27T14:54:23;9.42;-6.00
19340;HTU21D;9804;52.350;6.684;2023-02-27T14:59:29;9.51;-6.00
19340;HTU21D;9804;52.350;6.684;2023-02-27T15:01:57;9.52;-6.00
19340;HTU21D;9804;52.350;6.684;2023-02-27T15:04:25;9.75;-6.00
19340;HTU21D;9804;52.350;6.684;2023-02-27T15:06:53;10.06;-6.00
19340;HTU21D;9804;52.350;6.684;2023-02-27T15:09:24;9.94;-6.00
19340;HTU21D;9804;52.350;6.684;2023-02-27T15:11:52;10.07;-6.00
19340;HTU21D;9804;52.350;6.684;2023-02-27T15:14:23;9.71;-6.00
19340;HTU21D;9804;52.350;6.684;2023-02-27T15:16:55;9.56;-6.00
19340;HTU21D;9804;52.350;6.684;2023-02-27T15:19:22;9.66;-6.00
19340;HTU21D;9804;52.350;6.684;2023-02-27T15:21:57;9.47;-6.00
19340;HTU21D;9804;52.350;6.684;2023-02-27T15:24:24;9.37;-6.00
19340;HTU21D;9804;52.350;6.684;2023-02-27T15:26:53;9.65;-6.00
19340;HTU21D;9804;52.350;6.684;2023-02-27T15:29:22;9.53;-6.00
19340;HTU21D;9804;52.350;6.684;2023-02-27T15:31:48;9.54;-6.00
19340;HTU21D;9804;52.350;6.684;2023-02-27T15:34:14;9.46;-6.00
19340;HTU21D;9804;52.350;6.684;2023-02-27T15:36:54;9.53;-6.00
19340;HTU21D;9804;52.350;6.684;2023-02-27T15:39:22;9.47;-6.00
19340;HTU21D;9804;52.350;6.684;2023-02-27T15:41:51;9.45;-6.00
19340;HTU21D;9804;52.350;6.684;2023-02-27T15:44:26;9.61;-6.00
19340;HTU21D;9804;52.350;6.684;2023-02-27T15:46:54;9.35;-6.00
19340;HTU21D;9804;52.350;6.684;2023-02-27T15:49:22;9.35;-6.00
19340;HTU21D;9804;52.350;6.684;2023-02-27T15:51:59;9.05;-6.00
19340;HTU21D;9804;52.350;6.684;2023-02-27T15:54:29;9.10;-6.00
19340;HTU21D;9804;52.350;6.684;2023-02-27T15:56:55;8.91;-6.00
19340;HTU21D;9804;52.350;6.684;2023-02-27T15:59:20;8.88;-6.00
19340;HTU21D;9804;52.350;6.684;2023-02-27T16:01:47;9.08;-6.00
19340;HTU21D;9804;52.350;6.684;2023-02-27T16:04:24;9.02;-6.00
19340;HTU21D;9804;52.350;6.684;2023-02-27T16:07:04;8.97;-6.00
19340;HTU21D;9804;52.350;6.684;2023-02-27T16:09:32;9.01;-6.00
19340;HTU21D;9804;52.350;6.684;2023-02-27T16:12:19;8.95;-6.00
19340;HTU21D;9804;52.350;6.684;2023-02-27T16:14:46;8.95;-6.00
19340;HTU21D;9804;52.350;6.684;2023-02-27T16:17:27;8.93;-6.00
19340;HTU21D;9804;52.350;6.684;2023-02-27T16:19:54;9.19;-6.00
19340;HTU21D;9804;52.350;6.684;2023-02-27T16:22:21;9.08;-6.00
19340;HTU21D;9804;52.350;6.684;2023-02-27T16:24:47;9.20;-6.00
19340;HTU21D;9804;52.350;6.684;2023-02-27T16:27:28;9.20;-6.00
19340;HTU21D;9804;52.350;6.684;2023-02-27T16:29:55;9.26;-6.00
19340;HTU21D;9804;52.350;6.684;2023-02-27T16:32:29;9.12;-6.00
19340;HTU21D;9804;52.350;6.684;2023-02-27T16:35:04;9.19;-6.00
19340;HTU21D;9804;52.350;6.684;2023-02-27T16:37:34;9.48;-6.00
19340;HTU21D;9804;52.350;6.684;2023-02-27T16:40:01;9.56;-6.00
19340;HTU21D;9804;52.350;6.684;2023-02-27T16:42:29;9.53;-6.00
19340;HTU21D;9804;52.350;6.684;2023-02-27T16:44:55;9.27;-6.00
19340;HTU21D;9804;52.350;6.684;2023-02-27T16:47:20;9.38;-6.00
19340;HTU21D;9804;52.350;6.684;2023-02-27T16:49:46;9.06;-6.00
19340;HTU21D;9804;52.350;6.684;2023-02-27T16:52:13;8.85;-6.00
19340;HTU21D;9804;52.350;6.684;2023-02-27T16:54:39;8.73;-6.00
19340;HTU21D;9804;52.350;6.684;2023-02-27T16:57:04;8.42;-6.00
19340;HTU21D;9804;52.350;6.684;2023-02-27T16:59:37;8.41;-6.00
19340;HTU21D;9804;52.350;6.684;2023-02-27T17:02:09;8.46;-6.00
19340;HTU21D;9804;52.350;6.684;2023-02-27T17:04:34;8.18;-6.00
19340;HTU21D;9804;52.350;6.684;2023-02-27T17:07:02;7.96;-6.00
19340;HTU21D;9804;52.350;6.684;2023-02-27T17:09:28;8.07;-6.00
19340;HTU21D;9804;52.350;6.684;2023-02-27T17:11:55;8.12;-6.00
19340;HTU21D;9804;52.350;6.684;2023-02-27T17:14:21;8.14;-6.00
19340;HTU21D;9804;52.350;6.684;2023-02-27T17:16:47;8.05;-6.00
19340;HTU21D;9804;52.350;6.684;2023-02-27T17:19:13;7.78;-6.00
19340;HTU21D;9804;52.350;6.684;2023-02-27T17:21:39;7.54;-6.00
19340;HTU21D;9804;52.350;6.684;2023-02-27T17:24:05;7.42;-6.00
19340;HTU21D;9804;52.350;6.684;2023-02-27T17:26:31;7.19;-6.00
19340;HTU21D;9804;52.350;6.684;2023-02-27T17:28:57;7.16;-6.00
19340;HTU21D;9804;52.350;6.684;2023-02-27T17:31:23;7.28;-6.00
19340;HTU21D;9804;52.350;6.684;2023-02-27T17:33:49;7.08;-6.00
19340;HTU21D;9804;52.350;6.684;2023-02-27T17:36:15;7.08;-6.00
19340;HTU21D;9804;52.350;6.684;2023-02-27T17:38:41;7.10;-6.00
19340;HTU21D;9804;52.350;6.684;2023-02-27T17:41:08;6.97;-6.00
19340;HTU21D;9804;52.350;6.684;2023-02-27T17:43:33;6.88;-6.00
19340;HTU21D;9804;52.350;6.684;2023-02-27T17:45:59;6.72;-6.00
19340;HTU21D;9804;52.350;6.684;2023-02-27T17:48:25;6.69;-6.00
19340;HTU21D;9804;52.350;6.684;2023-02-27T17:50:51;6.63;-6.00
19340;HTU21D;9804;52.350;6.684;2023-02-27T17:53:17;6.59;-6.00
19340;HTU21D;9804;52.350;6.684;2023-02-27T17:55:42;6.50;-6.00
19340;HTU21D;9804;52.350;6.684;2023-02-27T17:58:08;6.60;-6.00
19340;HTU21D;9804;52.350;6.684;2023-02-27T18:00:33;6.69;-6.00
19340;HTU21D;9804;52.350;6.684;2023-02-27T18:02:59;6.65;-6.00
19340;HTU21D;9804;52.350;6.684;2023-02-27T18:05:24;6.80;-6.00
19340;HTU21D;9804;52.350;6.684;2023-02-27T18:07:49;6.72;-6.00
19340;HTU21D;9804;52.350;6.684;2023-02-27T18:10:15;6.55;-6.00